createdAt,value
2023-12-03T00:01:09.489Z,38.22
2023-12-03T00:05:08.769Z,38.30
2023-12-03T00:10:08.263Z,41.58
2023-12-03T00:15:08.495Z,43.08
2023-12-03T00:20:08.974Z,45.95
2023-12-03T00:25:08.247Z,36.47
2023-12-03T00:30:08.595Z,41.08
2023-12-03T00:35:08.687Z,44.58
2023-12-03T00:40:08.856Z,44.25
2023-12-03T00:45:09.116Z,41.70
2023-12-03T00:50:08.345Z,42.58
2023-12-03T00:55:08.552Z,46.08
2023-12-03T01:00:08.794Z,44.60
2023-12-03T01:05:08.381Z,43.08
2023-12-03T01:10:08.697Z,44.80
2023-12-03T01:15:08.986Z,40.17
2023-12-03T01:20:08.187Z,39.42
2023-12-03T01:25:08.809Z,41.47
2023-12-03T01:30:09.005Z,38.97
2023-12-03T01:35:08.104Z,41.78
2023-12-03T01:40:08.298Z,41.90
2023-12-03T01:45:08.613Z,38.20
2023-12-03T01:50:08.904Z,46.42
2023-12-03T01:55:09.166Z,44.42
2023-12-03T02:00:08.513Z,43.58
2023-12-03T02:05:09.086Z,49.35
2023-12-03T02:10:08.297Z,46.67
2023-12-03T02:15:08.613Z,46.42
2023-12-03T02:20:08.796Z,48.58
2023-12-03T02:25:09.048Z,40.92
2023-12-03T02:30:08.249Z,42.45
2023-12-03T02:35:08.524Z,49.63
2023-12-03T02:40:08.727Z,45.95
2023-12-03T02:45:08.994Z,44.78
2023-12-03T02:50:08.180Z,48.60
2023-12-03T02:55:08.328Z,42.08
2023-12-03T03:00:08.528Z,45.55
2023-12-03T03:05:08.680Z,37.55
2023-12-03T03:10:08.799Z,35.45
2023-12-03T03:15:09.100Z,37.92
2023-12-03T03:20:08.235Z,37.03
2023-12-03T03:25:08.337Z,39.60
2023-12-03T03:30:08.611Z,37.70
2023-12-03T03:35:08.816Z,38.15
2023-12-03T03:40:08.956Z,38.30
2023-12-03T03:45:08.116Z,45.53
2023-12-03T03:50:08.341Z,49.45
2023-12-03T03:55:16.808Z,43.17
2023-12-03T04:00:08.945Z,37.75
2023-12-03T04:05:08.061Z,44.40
2023-12-03T04:10:08.299Z,43.33
2023-12-03T04:15:08.545Z,40.00
2023-12-03T04:20:08.744Z,38.17
2023-12-03T04:25:08.810Z,41.53
2023-12-03T04:30:09.023Z,33.10
2023-12-03T04:35:08.176Z,38.28
2023-12-03T04:40:08.371Z,36.85
2023-12-03T04:45:08.492Z,38.33
2023-12-03T04:50:08.590Z,36.33
2023-12-03T04:55:08.795Z,39.53
2023-12-03T05:00:09.102Z,43.17
2023-12-03T05:05:02.408Z,42.35
2023-12-03T05:10:02.811Z,46.17
2023-12-03T05:15:03.229Z,43.42
2023-12-03T05:20:02.639Z,39.38
2023-12-03T05:25:03.111Z,45.20
2023-12-03T05:30:02.419Z,38.38
2023-12-03T05:35:02.710Z,40.22
2023-12-03T05:40:03.085Z,37.17
2023-12-03T05:45:02.387Z,37.63
2023-12-03T05:50:02.878Z,34.35
2023-12-03T05:55:02.223Z,34.47
2023-12-03T06:00:02.486Z,42.85
2023-12-03T06:05:02.798Z,35.83
2023-12-03T06:10:03.184Z,37.70
2023-12-03T06:15:02.490Z,32.38
2023-12-03T06:20:02.864Z,40.88
2023-12-03T06:25:04.821Z,35.70
2023-12-03T06:30:03.005Z,28.35
2023-12-03T06:35:02.258Z,37.47
2023-12-03T06:40:02.711Z,39.13
2023-12-03T06:45:03.054Z,39.38
2023-12-03T06:50:02.331Z,38.95
2023-12-03T06:55:02.716Z,42.03
2023-12-03T07:00:03.055Z,42.00
2023-12-03T07:05:02.303Z,36.83
2023-12-03T07:10:02.706Z,40.92
2023-12-03T07:15:03.077Z,42.85
2023-12-03T07:20:02.219Z,41.25
2023-12-03T07:25:02.490Z,39.33
2023-12-03T07:30:02.791Z,38.75
2023-12-03T07:35:03.035Z,33.83
2023-12-03T07:40:02.451Z,32.08
2023-12-03T07:45:02.828Z,37.25
2023-12-03T07:50:03.096Z,39.65
2023-12-03T07:55:02.344Z,31.20
2023-12-03T08:00:02.528Z,40.35
2023-12-03T08:05:02.930Z,35.67
2023-12-03T08:10:02.315Z,42.30
2023-12-03T08:15:02.642Z,36.47
2023-12-03T08:20:02.935Z,34.55
2023-12-03T08:25:02.291Z,33.55
2023-12-03T08:30:02.594Z,35.53
2023-12-03T08:35:02.911Z,36.03
2023-12-03T08:40:03.249Z,36.97
2023-12-03T08:45:02.392Z,40.30
2023-12-03T08:50:02.619Z,37.60
2023-12-03T08:55:02.889Z,31.42
2023-12-03T09:00:03.278Z,36.20
2023-12-03T09:05:02.648Z,29.35
2023-12-03T09:10:03.054Z,30.25
2023-12-03T09:15:02.287Z,35.53
2023-12-03T09:20:02.912Z,33.03
2023-12-03T09:25:03.371Z,34.50
2023-12-03T09:30:02.718Z,34.65
2023-12-03T09:35:03.066Z,35.22
2023-12-03T09:40:02.404Z,35.75
2023-12-03T09:45:02.691Z,32.50
2023-12-03T09:50:03.047Z,36.58
2023-12-03T09:55:02.322Z,30.55
2023-12-03T10:00:02.728Z,32.78
2023-12-03T10:05:03.240Z,33.38
2023-12-03T10:10:02.732Z,31.45
2023-12-03T10:15:03.065Z,33.17
2023-12-03T10:20:02.372Z,31.33
2023-12-03T10:25:02.646Z,30.85
2023-12-03T10:30:03.029Z,34.08
2023-12-03T10:35:02.206Z,30.00
2023-12-03T10:40:02.559Z,28.00
2023-12-03T10:45:02.800Z,34.42
2023-12-03T10:50:02.959Z,33.45
2023-12-03T10:55:02.251Z,32.38
2023-12-03T11:00:03.036Z,34.78
2023-12-03T11:05:02.300Z,29.48
2023-12-03T11:10:02.709Z,30.88
2023-12-03T11:15:03.098Z,29.35
2023-12-03T11:20:02.499Z,28.88
2023-12-03T11:25:03.185Z,31.23
2023-12-03T11:30:02.540Z,28.23
2023-12-03T11:35:03.078Z,29.70
2023-12-03T11:40:02.472Z,26.35
2023-12-03T11:45:02.775Z,26.75
2023-12-03T11:50:02.940Z,24.48
2023-12-03T11:55:02.335Z,26.48
2023-12-03T12:00:02.682Z,28.25
2023-12-03T12:05:02.973Z,21.23
2023-12-03T12:10:02.528Z,24.52
2023-12-03T12:15:02.949Z,20.92
2023-12-03T12:20:12.424Z,21.60
2023-12-03T12:25:03.468Z,20.90
2023-12-03T12:30:14.077Z,19.55
2023-12-03T12:35:02.603Z,21.75
2023-12-03T12:40:02.929Z,20.40
2023-12-03T12:45:02.423Z,20.15
2023-12-03T12:50:02.687Z,21.27
2023-12-03T12:55:06.938Z,21.58
2023-12-03T13:00:03.103Z,17.83
2023-12-03T13:05:02.297Z,18.15
2023-12-03T13:10:02.836Z,16.15
2023-12-03T13:15:03.168Z,16.23
2023-12-03T13:20:02.597Z,15.13
2023-12-03T13:25:03.162Z,18.73
2023-12-03T13:30:02.442Z,18.65
2023-12-03T13:35:06.170Z,20.52
2023-12-03T13:40:02.917Z,15.82
2023-12-03T13:45:02.238Z,18.27
2023-12-03T13:50:02.703Z,16.13
2023-12-03T13:55:03.039Z,21.27
2023-12-03T14:00:02.454Z,18.38
2023-12-03T14:05:12.771Z,17.90
2023-12-03T14:10:03.229Z,21.42
2023-12-03T14:15:02.603Z,18.30
2023-12-03T14:20:03.082Z,20.70
2023-12-03T14:25:02.584Z,18.40
2023-12-03T14:30:02.894Z,16.38
2023-12-03T14:35:03.272Z,18.20
2023-12-03T14:40:02.592Z,18.65
2023-12-03T14:45:02.826Z,16.83
2023-12-03T14:50:03.066Z,21.60
2023-12-03T14:55:02.437Z,21.83
2023-12-03T15:00:02.876Z,19.92
2023-12-03T15:05:03.306Z,22.45
2023-12-03T15:10:02.672Z,24.88
2023-12-03T15:15:03.255Z,22.55
2023-12-03T15:20:02.861Z,24.95
2023-12-03T15:25:02.211Z,22.77
2023-12-03T15:30:02.685Z,20.60
2023-12-03T15:35:02.967Z,22.67
2023-12-03T15:40:02.308Z,24.25
2023-12-03T15:45:02.616Z,23.13
2023-12-03T15:50:02.867Z,26.95
2023-12-03T15:55:12.387Z,24.33
2023-12-03T16:00:02.767Z,21.90
2023-12-03T16:05:03.314Z,23.88
2023-12-03T16:10:06.121Z,24.15
2023-12-03T16:15:02.800Z,26.05
2023-12-03T16:20:03.154Z,25.58
2023-12-03T16:25:02.616Z,21.48
2023-12-03T16:30:03.061Z,20.27
2023-12-03T16:35:02.489Z,22.15
2023-12-03T16:40:02.871Z,22.92
2023-12-03T16:45:03.160Z,19.73
2023-12-03T16:50:02.575Z,18.08
2023-12-03T16:55:03.049Z,22.05
2023-12-03T17:00:02.857Z,20.23
2023-12-03T17:05:03.342Z,22.35
2023-12-03T17:10:02.915Z,20.92
2023-12-03T17:15:02.353Z,18.45
2023-12-03T17:20:02.744Z,22.05
2023-12-03T17:25:03.206Z,19.95
2023-12-03T17:30:02.545Z,22.73
2023-12-03T17:35:03.150Z,22.23
2023-12-03T17:40:02.696Z,20.13
2023-12-03T17:45:03.363Z,21.10
2023-12-03T17:50:02.693Z,23.63
2023-12-03T17:55:02.901Z,20.77
2023-12-03T18:00:02.194Z,19.25
2023-12-03T18:05:02.605Z,18.23
2023-12-03T18:10:03.077Z,19.33
2023-12-03T18:15:02.506Z,20.02
2023-12-03T18:20:02.838Z,17.05
2023-12-03T18:25:03.223Z,18.38
2023-12-03T18:30:02.517Z,18.75
2023-12-03T18:35:02.817Z,19.60
2023-12-03T18:40:03.505Z,18.33
2023-12-03T18:45:03.018Z,19.67
2023-12-03T18:50:02.287Z,21.15
2023-12-03T18:55:02.637Z,21.10
2023-12-03T19:00:03.020Z,18.75
2023-12-03T19:05:02.473Z,22.67
2023-12-03T19:10:02.932Z,19.35
2023-12-03T19:15:02.375Z,19.65
2023-12-03T19:20:02.735Z,25.58
2023-12-03T19:25:03.067Z,23.25
2023-12-03T19:30:02.430Z,22.13
2023-12-03T19:35:02.797Z,22.15
2023-12-03T19:40:03.342Z,23.48
2023-12-03T19:45:02.750Z,22.63
2023-12-03T19:50:03.171Z,22.02
2023-12-03T19:55:02.605Z,20.90
2023-12-03T20:00:03.172Z,23.48
2023-12-03T20:05:02.636Z,20.42
2023-12-03T20:10:03.220Z,19.88
2023-12-03T20:15:02.646Z,20.90
2023-12-03T20:20:03.084Z,21.08
2023-12-03T20:25:02.562Z,18.33
2023-12-03T20:30:03.082Z,20.15
2023-12-03T20:35:02.350Z,21.63
2023-12-03T20:40:02.636Z,18.25
2023-12-03T20:45:03.158Z,20.42
2023-12-03T20:50:02.569Z,20.60
2023-12-03T20:55:03.020Z,17.95
2023-12-03T21:00:02.587Z,16.73
2023-12-03T21:05:03.065Z,17.48
2023-12-03T21:10:02.568Z,17.42
2023-12-03T21:15:02.815Z,16.77
2023-12-03T21:20:03.222Z,13.27
2023-12-03T21:25:02.611Z,18.15
2023-12-03T21:30:02.962Z,19.20
2023-12-03T21:35:02.300Z,16.35
2023-12-03T21:40:02.694Z,20.30
2023-12-03T21:45:03.065Z,17.52
2023-12-03T21:50:02.435Z,19.35
2023-12-03T21:55:02.863Z,20.15
2023-12-03T22:00:02.372Z,22.33
2023-12-03T22:05:02.737Z,21.38
2023-12-03T22:10:03.138Z,22.83
2023-12-03T22:15:02.513Z,22.65
2023-12-03T22:20:02.907Z,24.02
2023-12-03T22:25:02.390Z,25.80
2023-12-03T22:30:06.686Z,25.02
2023-12-03T22:35:02.339Z,27.20
2023-12-03T22:40:02.794Z,26.88
2023-12-03T22:45:03.911Z,27.20
2023-12-03T22:50:04.829Z,25.02
2023-12-03T22:55:03.378Z,26.23
2023-12-03T23:00:02.869Z,26.50
2023-12-03T23:05:24.854Z,27.60
2023-12-03T23:10:08.241Z,30.45
2023-12-03T23:15:08.505Z,31.77
2023-12-03T23:20:08.869Z,26.77
2023-12-03T23:25:08.164Z,28.00
2023-12-03T23:30:08.437Z,26.98
2023-12-03T23:35:08.693Z,27.30
2023-12-03T23:40:09.673Z,25.60
2023-12-03T23:45:08.962Z,28.60
2023-12-03T23:50:08.153Z,25.63
2023-12-03T23:55:08.382Z,23.55
